sensor_id;sensor_type;location;lat;lon;timestamp;P1;durP1;ratioP1;P2;durP2;ratioP2
8293;SDS011;4185;41.506;24.938;2023-01-15T00:00:47;4.33;;;3.87;;
8293;SDS011;4185;41.506;24.938;2023-01-15T00:03:14;5.90;;;4.37;;
8293;SDS011;4185;41.506;24.938;2023-01-15T00:05:41;4.93;;;3.83;;
8293;SDS011;4185;41.506;24.938;2023-01-15T00:08:08;3.80;;;3.20;;
8293;SDS011;4185;41.506;24.938;2023-01-15T00:10:36;4.40;;;4.00;;
8293;SDS011;4185;41.506;24.938;2023-01-15T00:13:03;3.90;;;3.50;;
8293;SDS011;4185;41.506;24.938;2023-01-15T00:15:30;4.43;;;3.50;;
8293;SDS011;4185;41.506;24.938;2023-01-15T00:17:57;3.87;;;3.47;;
8293;SDS011;4185;41.506;24.938;2023-01-15T00:20:24;3.50;;;3.17;;
8293;SDS011;4185;41.506;24.938;2023-01-15T00:22:51;4.57;;;3.00;;
8293;SDS011;4185;41.506;24.938;2023-01-15T00:25:18;4.53;;;3.57;;
8293;SDS011;4185;41.506;24.938;2023-01-15T00:28:04;3.87;;;3.10;;
8293;SDS011;4185;41.506;24.938;2023-01-15T00:30:30;3.90;;;3.47;;
8293;SDS011;4185;41.506;24.938;2023-01-15T00:32:57;4.10;;;3.20;;
8293;SDS011;4185;41.506;24.938;2023-01-15T00:35:24;4.20;;;3.10;;
8293;SDS011;4185;41.506;24.938;2023-01-15T00:37:51;4.63;;;3.47;;
8293;SDS011;4185;41.506;24.938;2023-01-15T00:40:20;4.43;;;3.43;;
8293;SDS011;4185;41.506;24.938;2023-01-15T00:42:47;4.87;;;4.23;;
8293;SDS011;4185;41.506;24.938;2023-01-15T00:45:15;3.83;;;3.50;;
8293;SDS011;4185;41.506;24.938;2023-01-15T00:47:43;5.77;;;4.47;;
8293;SDS011;4185;41.506;24.938;2023-01-15T00:50:12;3.37;;;3.07;;
8293;SDS011;4185;41.506;24.938;2023-01-15T00:52:40;3.53;;;3.23;;
8293;SDS011;4185;41.506;24.938;2023-01-15T00:55:07;4.33;;;3.50;;
8293;SDS011;4185;41.506;24.938;2023-01-15T00:57:35;3.33;;;2.97;;
8293;SDS011;4185;41.506;24.938;2023-01-15T01:00:02;3.47;;;2.90;;
8293;SDS011;4185;41.506;24.938;2023-01-15T01:02:31;3.43;;;3.03;;
8293;SDS011;4185;41.506;24.938;2023-01-15T01:04:58;4.27;;;3.10;;
8293;SDS011;4185;41.506;24.938;2023-01-15T01:07:25;3.87;;;3.40;;
8293;SDS011;4185;41.506;24.938;2023-01-15T01:09:51;4.07;;;3.50;;
8293;SDS011;4185;41.506;24.938;2023-01-15T01:12:18;3.37;;;2.83;;
8293;SDS011;4185;41.506;24.938;2023-01-15T01:14:47;3.90;;;3.53;;
8293;SDS011;4185;41.506;24.938;2023-01-15T01:17:14;4.20;;;3.40;;
8293;SDS011;4185;41.506;24.938;2023-01-15T01:19:42;4.17;;;3.77;;
8293;SDS011;4185;41.506;24.938;2023-01-15T01:22:09;4.67;;;4.23;;
8293;SDS011;4185;41.506;24.938;2023-01-15T01:24:36;4.57;;;3.23;;
8293;SDS011;4185;41.506;24.938;2023-01-15T01:27:03;3.33;;;2.90;;
8293;SDS011;4185;41.506;24.938;2023-01-15T01:29:30;3.47;;;3.17;;
8293;SDS011;4185;41.506;24.938;2023-01-15T01:31:57;4.30;;;3.90;;
8293;SDS011;4185;41.506;24.938;2023-01-15T01:34:23;3.53;;;3.20;;
8293;SDS011;4185;41.506;24.938;2023-01-15T01:36:52;3.90;;;3.33;;
8293;SDS011;4185;41.506;24.938;2023-01-15T01:39:19;3.73;;;3.43;;
8293;SDS011;4185;41.506;24.938;2023-01-15T01:41:46;4.27;;;3.67;;
8293;SDS011;4185;41.506;24.938;2023-01-15T01:47:18;3.60;;;3.20;;
8293;SDS011;4185;41.506;24.938;2023-01-15T01:49:48;4.30;;;3.80;;
8293;SDS011;4185;41.506;24.938;2023-01-15T01:52:18;4.27;;;3.87;;
8293;SDS011;4185;41.506;24.938;2023-01-15T01:54:48;4.03;;;3.20;;
8293;SDS011;4185;41.506;24.938;2023-01-15T01:57:16;5.03;;;3.57;;
8293;SDS011;4185;41.506;24.938;2023-01-15T01:59:46;3.47;;;3.17;;
8293;SDS011;4185;41.506;24.938;2023-01-15T02:02:14;3.80;;;3.40;;
8293;SDS011;4185;41.506;24.938;2023-01-15T02:04:44;4.57;;;3.70;;
8293;SDS011;4185;41.506;24.938;2023-01-15T02:07:12;3.93;;;3.03;;
8293;SDS011;4185;41.506;24.938;2023-01-15T02:09:40;3.97;;;3.40;;
8293;SDS011;4185;41.506;24.938;2023-01-15T02:12:08;4.20;;;3.80;;
8293;SDS011;4185;41.506;24.938;2023-01-15T02:14:44;4.53;;;3.77;;
8293;SDS011;4185;41.506;24.938;2023-01-15T02:17:19;4.67;;;3.63;;
8293;SDS011;4185;41.506;24.938;2023-01-15T02:20:02;3.90;;;3.50;;
8293;SDS011;4185;41.506;24.938;2023-01-15T02:22:43;4.17;;;3.53;;
8293;SDS011;4185;41.506;24.938;2023-01-15T02:25:22;3.57;;;2.97;;
8293;SDS011;4185;41.506;24.938;2023-01-15T02:27:59;3.57;;;3.27;;
8293;SDS011;4185;41.506;24.938;2023-01-15T02:30:30;5.00;;;4.07;;
8293;SDS011;4185;41.506;24.938;2023-01-15T02:33:03;6.10;;;4.70;;
8293;SDS011;4185;41.506;24.938;2023-01-15T02:35:33;5.13;;;3.90;;
8293;SDS011;4185;41.506;24.938;2023-01-15T02:38:04;7.50;;;4.30;;
8293;SDS011;4185;41.506;24.938;2023-01-15T02:40:36;4.37;;;3.97;;
8293;SDS011;4185;41.506;24.938;2023-01-15T02:43:06;5.43;;;3.60;;
8293;SDS011;4185;41.506;24.938;2023-01-15T02:45:35;6.93;;;5.03;;
8293;SDS011;4185;41.506;24.938;2023-01-15T02:48:07;4.77;;;4.37;;
8293;SDS011;4185;41.506;24.938;2023-01-15T02:50:39;4.00;;;3.57;;
8293;SDS011;4185;41.506;24.938;2023-01-15T02:53:11;3.60;;;3.30;;
8293;SDS011;4185;41.506;24.938;2023-01-15T02:55:42;4.97;;;4.20;;
8293;SDS011;4185;41.506;24.938;2023-01-15T02:58:15;4.03;;;3.53;;
8293;SDS011;4185;41.506;24.938;2023-01-15T03:00:47;4.10;;;3.70;;
8293;SDS011;4185;41.506;24.938;2023-01-15T03:03:18;4.33;;;3.60;;
8293;SDS011;4185;41.506;24.938;2023-01-15T03:05:51;4.30;;;3.80;;
8293;SDS011;4185;41.506;24.938;2023-01-15T03:08:23;5.00;;;4.50;;
8293;SDS011;4185;41.506;24.938;2023-01-15T03:10:52;5.37;;;4.30;;
8293;SDS011;4185;41.506;24.938;2023-01-15T03:13:33;5.57;;;3.70;;
8293;SDS011;4185;41.506;24.938;2023-01-15T03:16:11;5.10;;;3.80;;
8293;SDS011;4185;41.506;24.938;2023-01-15T03:19:02;4.20;;;3.80;;
8293;SDS011;4185;41.506;24.938;2023-01-15T03:21:38;5.30;;;4.10;;
8293;SDS011;4185;41.506;24.938;2023-01-15T03:24:13;4.60;;;3.50;;
8293;SDS011;4185;41.506;24.938;2023-01-15T03:26:44;3.43;;;3.10;;
8293;SDS011;4185;41.506;24.938;2023-01-15T03:29:12;3.50;;;3.20;;
8293;SDS011;4185;41.506;24.938;2023-01-15T03:31:39;2.90;;;2.67;;
8293;SDS011;4185;41.506;24.938;2023-01-15T03:34:09;4.17;;;3.57;;
8293;SDS011;4185;41.506;24.938;2023-01-15T03:36:36;4.23;;;3.47;;
8293;SDS011;4185;41.506;24.938;2023-01-15T03:39:03;3.40;;;3.10;;
8293;SDS011;4185;41.506;24.938;2023-01-15T03:41:33;3.47;;;3.17;;
8293;SDS011;4185;41.506;24.938;2023-01-15T03:44:10;3.70;;;3.00;;
8293;SDS011;4185;41.506;24.938;2023-01-15T03:46:49;3.23;;;2.93;;
8293;SDS011;4185;41.506;24.938;2023-01-15T03:49:28;4.30;;;3.77;;
8293;SDS011;4185;41.506;24.938;2023-01-15T03:52:07;3.20;;;2.90;;
8293;SDS011;4185;41.506;24.938;2023-01-15T03:54:41;3.23;;;2.93;;
8293;SDS011;4185;41.506;24.938;2023-01-15T03:57:14;4.67;;;3.50;;
8293;SDS011;4185;41.506;24.938;2023-01-15T03:59:53;6.30;;;3.50;;
8293;SDS011;4185;41.506;24.938;2023-01-15T04:02:22;5.27;;;4.27;;
8293;SDS011;4185;41.506;24.938;2023-01-15T04:04:50;4.73;;;3.40;;
8293;SDS011;4185;41.506;24.938;2023-01-15T04:07:19;4.67;;;3.70;;
8293;SDS011;4185;41.506;24.938;2023-01-15T04:09:47;3.60;;;3.30;;
8293;SDS011;4185;41.506;24.938;2023-01-15T04:12:14;3.63;;;3.03;;
8293;SDS011;4185;41.506;24.938;2023-01-15T04:14:41;3.83;;;3.30;;
8293;SDS011;4185;41.506;24.938;2023-01-15T04:17:09;3.47;;;3.10;;
8293;SDS011;4185;41.506;24.938;2023-01-15T04:19:36;3.37;;;3.00;;
8293;SDS011;4185;41.506;24.938;2023-01-15T04:22:03;3.27;;;2.97;;
8293;SDS011;4185;41.506;24.938;2023-01-15T04:24:30;2.97;;;2.70;;
8293;SDS011;4185;41.506;24.938;2023-01-15T04:26:57;4.43;;;3.70;;
8293;SDS011;4185;41.506;24.938;2023-01-15T04:29:24;4.03;;;3.20;;
8293;SDS011;4185;41.506;24.938;2023-01-15T04:31:51;4.43;;;3.97;;
8293;SDS011;4185;41.506;24.938;2023-01-15T04:34:23;3.97;;;3.43;;
8293;SDS011;4185;41.506;24.938;2023-01-15T04:36:50;4.13;;;3.73;;
8293;SDS011;4185;41.506;24.938;2023-01-15T04:39:17;4.30;;;3.90;;
8293;SDS011;4185;41.506;24.938;2023-01-15T04:41:44;4.63;;;3.40;;
8293;SDS011;4185;41.506;24.938;2023-01-15T04:44:29;3.90;;;3.50;;
8293;SDS011;4185;41.506;24.938;2023-01-15T04:46:57;5.03;;;3.87;;
8293;SDS011;4185;41.506;24.938;2023-01-15T04:49:26;4.87;;;3.60;;
8293;SDS011;4185;41.506;24.938;2023-01-15T04:51:53;3.37;;;2.87;;
8293;SDS011;4185;41.506;24.938;2023-01-15T04:54:20;4.00;;;3.17;;
8293;SDS011;4185;41.506;24.938;2023-01-15T04:56:48;6.93;;;5.00;;
8293;SDS011;4185;41.506;24.938;2023-01-15T04:59:16;6.50;;;4.47;;
8293;SDS011;4185;41.506;24.938;2023-01-15T05:01:45;8.40;;;6.10;;
8293;SDS011;4185;41.506;24.938;2023-01-15T05:04:12;8.93;;;5.97;;
8293;SDS011;4185;41.506;24.938;2023-01-15T05:06:40;10.20;;;6.20;;
8293;SDS011;4185;41.506;24.938;2023-01-15T05:09:07;10.80;;;7.17;;
8293;SDS011;4185;41.506;24.938;2023-01-15T05:11:34;11.83;;;8.90;;
8293;SDS011;4185;41.506;24.938;2023-01-15T05:14:02;11.60;;;7.47;;
8293;SDS011;4185;41.506;24.938;2023-01-15T05:16:29;9.97;;;6.20;;
8293;SDS011;4185;41.506;24.938;2023-01-15T05:18:58;8.97;;;6.90;;
8293;SDS011;4185;41.506;24.938;2023-01-15T05:21:27;8.10;;;5.20;;
8293;SDS011;4185;41.506;24.938;2023-01-15T05:23:57;7.93;;;5.70;;
8293;SDS011;4185;41.506;24.938;2023-01-15T05:26:25;7.10;;;5.40;;
8293;SDS011;4185;41.506;24.938;2023-01-15T05:28:54;15.03;;;8.20;;
8293;SDS011;4185;41.506;24.938;2023-01-15T05:31:22;6.20;;;4.80;;
8293;SDS011;4185;41.506;24.938;2023-01-15T05:33:50;9.33;;;6.07;;
8293;SDS011;4185;41.506;24.938;2023-01-15T05:36:18;14.27;;;8.33;;
8293;SDS011;4185;41.506;24.938;2023-01-15T05:38:47;9.43;;;4.93;;
8293;SDS011;4185;41.506;24.938;2023-01-15T05:41:15;5.47;;;4.37;;
8293;SDS011;4185;41.506;24.938;2023-01-15T05:44:01;4.53;;;3.17;;
8293;SDS011;4185;41.506;24.938;2023-01-15T05:46:29;6.47;;;4.87;;
8293;SDS011;4185;41.506;24.938;2023-01-15T05:48:58;5.03;;;4.03;;
8293;SDS011;4185;41.506;24.938;2023-01-15T05:51:26;5.17;;;3.90;;
8293;SDS011;4185;41.506;24.938;2023-01-15T05:53:53;5.47;;;3.97;;
8293;SDS011;4185;41.506;24.938;2023-01-15T05:56:22;12.97;;;6.93;;
8293;SDS011;4185;41.506;24.938;2023-01-15T05:58:49;4.83;;;3.60;;
8293;SDS011;4185;41.506;24.938;2023-01-15T06:01:16;5.57;;;4.37;;
8293;SDS011;4185;41.506;24.938;2023-01-15T06:03:43;8.03;;;4.30;;
8293;SDS011;4185;41.506;24.938;2023-01-15T06:06:11;8.77;;;6.13;;
8293;SDS011;4185;41.506;24.938;2023-01-15T06:08:39;13.00;;;7.67;;
8293;SDS011;4185;41.506;24.938;2023-01-15T06:11:06;10.40;;;6.90;;
8293;SDS011;4185;41.506;24.938;2023-01-15T06:13:36;5.90;;;4.77;;
8293;SDS011;4185;41.506;24.938;2023-01-15T06:16:04;6.73;;;5.00;;
8293;SDS011;4185;41.506;24.938;2023-01-15T06:18:32;11.10;;;7.70;;
8293;SDS011;4185;41.506;24.938;2023-01-15T06:21:01;7.57;;;4.63;;
8293;SDS011;4185;41.506;24.938;2023-01-15T06:23:28;3.97;;;3.47;;
8293;SDS011;4185;41.506;24.938;2023-01-15T06:25:58;11.77;;;8.27;;
8293;SDS011;4185;41.506;24.938;2023-01-15T06:28:26;8.43;;;6.73;;
8293;SDS011;4185;41.506;24.938;2023-01-15T06:30:54;7.47;;;5.30;;
8293;SDS011;4185;41.506;24.938;2023-01-15T06:33:21;6.83;;;4.70;;
8293;SDS011;4185;41.506;24.938;2023-01-15T06:35:48;11.00;;;7.00;;
8293;SDS011;4185;41.506;24.938;2023-01-15T06:38:16;22.47;;;16.03;;
8293;SDS011;4185;41.506;24.938;2023-01-15T06:40:43;17.33;;;10.13;;
8293;SDS011;4185;41.506;24.938;2023-01-15T06:43:10;45.03;;;22.20;;
8293;SDS011;4185;41.506;24.938;2023-01-15T06:45:55;37.43;;;19.37;;
8293;SDS011;4185;41.506;24.938;2023-01-15T06:48:41;9.57;;;5.90;;
8293;SDS011;4185;41.506;24.938;2023-01-15T06:51:08;7.87;;;5.93;;
8293;SDS011;4185;41.506;24.938;2023-01-15T06:53:39;12.23;;;8.17;;
8293;SDS011;4185;41.506;24.938;2023-01-15T06:56:06;14.53;;;9.87;;
8293;SDS011;4185;41.506;24.938;2023-01-15T06:58:33;6.80;;;5.00;;
8293;SDS011;4185;41.506;24.938;2023-01-15T07:01:05;5.83;;;4.33;;
8293;SDS011;4185;41.506;24.938;2023-01-15T07:03:33;8.60;;;5.70;;
8293;SDS011;4185;41.506;24.938;2023-01-15T07:06:04;12.37;;;9.30;;
8293;SDS011;4185;41.506;24.938;2023-01-15T07:08:31;12.40;;;8.40;;
8293;SDS011;4185;41.506;24.938;2023-01-15T07:11:00;11.27;;;8.33;;
8293;SDS011;4185;41.506;24.938;2023-01-15T07:13:28;16.37;;;9.67;;
8293;SDS011;4185;41.506;24.938;2023-01-15T07:15:56;11.60;;;7.53;;
8293;SDS011;4185;41.506;24.938;2023-01-15T07:18:25;10.03;;;7.43;;
8293;SDS011;4185;41.506;24.938;2023-01-15T07:20:53;13.63;;;8.07;;
8293;SDS011;4185;41.506;24.938;2023-01-15T07:23:20;7.90;;;5.20;;
8293;SDS011;4185;41.506;24.938;2023-01-15T07:25:48;13.27;;;9.07;;
8293;SDS011;4185;41.506;24.938;2023-01-15T07:28:14;12.57;;;7.73;;
8293;SDS011;4185;41.506;24.938;2023-01-15T07:30:41;48.67;;;20.83;;
8293;SDS011;4185;41.506;24.938;2023-01-15T07:33:08;23.00;;;13.07;;
8293;SDS011;4185;41.506;24.938;2023-01-15T07:35:36;8.10;;;6.00;;
8293;SDS011;4185;41.506;24.938;2023-01-15T07:38:03;7.67;;;6.50;;
8293;SDS011;4185;41.506;24.938;2023-01-15T07:40:30;8.63;;;6.53;;
8293;SDS011;4185;41.506;24.938;2023-01-15T07:42:57;7.97;;;6.13;;
8293;SDS011;4185;41.506;24.938;2023-01-15T07:45:42;7.60;;;5.43;;
8293;SDS011;4185;41.506;24.938;2023-01-15T07:48:26;8.93;;;6.27;;
8293;SDS011;4185;41.506;24.938;2023-01-15T07:51:12;9.07;;;6.17;;
8293;SDS011;4185;41.506;24.938;2023-01-15T07:53:39;10.77;;;7.00;;
8293;SDS011;4185;41.506;24.938;2023-01-15T07:56:06;8.97;;;6.20;;
8293;SDS011;4185;41.506;24.938;2023-01-15T07:58:33;8.20;;;5.30;;
8293;SDS011;4185;41.506;24.938;2023-01-15T08:01:00;10.77;;;7.43;;
8293;SDS011;4185;41.506;24.938;2023-01-15T08:03:27;10.03;;;6.60;;
8293;SDS011;4185;41.506;24.938;2023-01-15T08:05:54;11.90;;;6.30;;
8293;SDS011;4185;41.506;24.938;2023-01-15T08:08:22;7.07;;;5.03;;
8293;SDS011;4185;41.506;24.938;2023-01-15T08:10:49;6.63;;;5.07;;
8293;SDS011;4185;41.506;24.938;2023-01-15T08:13:33;6.43;;;5.30;;
8293;SDS011;4185;41.506;24.938;2023-01-15T08:16:17;4.73;;;4.00;;
8293;SDS011;4185;41.506;24.938;2023-01-15T08:18:44;6.60;;;5.13;;
8293;SDS011;4185;41.506;24.938;2023-01-15T08:21:14;5.80;;;4.83;;
8293;SDS011;4185;41.506;24.938;2023-01-15T08:23:43;8.80;;;5.90;;
8293;SDS011;4185;41.506;24.938;2023-01-15T08:26:10;5.77;;;5.13;;
8293;SDS011;4185;41.506;24.938;2023-01-15T08:28:38;4.67;;;3.57;;
8293;SDS011;4185;41.506;24.938;2023-01-15T08:31:05;4.23;;;3.53;;
8293;SDS011;4185;41.506;24.938;2023-01-15T08:33:33;3.47;;;3.17;;
8293;SDS011;4185;41.506;24.938;2023-01-15T08:36:00;8.07;;;5.90;;
8293;SDS011;4185;41.506;24.938;2023-01-15T08:38:27;7.70;;;5.43;;
8293;SDS011;4185;41.506;24.938;2023-01-15T08:40:55;11.33;;;7.00;;
8293;SDS011;4185;41.506;24.938;2023-01-15T08:43:28;29.93;;;20.57;;
8293;SDS011;4185;41.506;24.938;2023-01-15T08:45:56;15.13;;;9.00;;
8293;SDS011;4185;41.506;24.938;2023-01-15T08:48:23;9.00;;;6.70;;
8293;SDS011;4185;41.506;24.938;2023-01-15T08:50:51;5.87;;;4.83;;
8293;SDS011;4185;41.506;24.938;2023-01-15T08:53:18;8.13;;;5.50;;
8293;SDS011;4185;41.506;24.938;2023-01-15T08:55:45;6.20;;;4.97;;
8293;SDS011;4185;41.506;24.938;2023-01-15T08:58:14;4.23;;;3.20;;
8293;SDS011;4185;41.506;24.938;2023-01-15T09:00:41;3.30;;;2.97;;
8293;SDS011;4185;41.506;24.938;2023-01-15T09:03:09;6.07;;;3.80;;
8293;SDS011;4185;41.506;24.938;2023-01-15T09:05:36;6.33;;;4.53;;
8293;SDS011;4185;41.506;24.938;2023-01-15T09:08:03;4.50;;;4.00;;
8293;SDS011;4185;41.506;24.938;2023-01-15T09:10:31;4.20;;;3.70;;
8293;SDS011;4185;41.506;24.938;2023-01-15T09:12:58;6.57;;;4.50;;
8293;SDS011;4185;41.506;24.938;2023-01-15T09:15:27;20.53;;;7.17;;
8293;SDS011;4185;41.506;24.938;2023-01-15T09:17:54;32.17;;;10.90;;
8293;SDS011;4185;41.506;24.938;2023-01-15T09:20:21;23.17;;;10.80;;
8293;SDS011;4185;41.506;24.938;2023-01-15T09:22:48;31.67;;;13.20;;
8293;SDS011;4185;41.506;24.938;2023-01-15T09:25:17;26.30;;;10.30;;
8293;SDS011;4185;41.506;24.938;2023-01-15T09:27:44;11.97;;;6.73;;
8293;SDS011;4185;41.506;24.938;2023-01-15T09:30:13;16.20;;;7.83;;
8293;SDS011;4185;41.506;24.938;2023-01-15T09:32:43;6.40;;;4.70;;
8293;SDS011;4185;41.506;24.938;2023-01-15T09:35:10;4.73;;;3.83;;
8293;SDS011;4185;41.506;24.938;2023-01-15T09:37:37;5.40;;;4.00;;
8293;SDS011;4185;41.506;24.938;2023-01-15T09:40:04;4.47;;;4.07;;
8293;SDS011;4185;41.506;24.938;2023-01-15T09:42:36;7.13;;;4.67;;
8293;SDS011;4185;41.506;24.938;2023-01-15T09:45:19;27.80;;;12.50;;
8293;SDS011;4185;41.506;24.938;2023-01-15T09:47:57;13.07;;;7.97;;
8293;SDS011;4185;41.506;24.938;2023-01-15T09:50:40;19.37;;;7.23;;
8293;SDS011;4185;41.506;24.938;2023-01-15T09:53:20;6.30;;;4.80;;
8293;SDS011;4185;41.506;24.938;2023-01-15T09:55:58;4.63;;;3.07;;
8293;SDS011;4185;41.506;24.938;2023-01-15T09:58:30;4.53;;;3.73;;
8293;SDS011;4185;41.506;24.938;2023-01-15T10:01:00;4.03;;;3.47;;
8293;SDS011;4185;41.506;24.938;2023-01-15T10:03:30;5.03;;;3.50;;
8293;SDS011;4185;41.506;24.938;2023-01-15T10:06:03;4.10;;;3.67;;
8293;SDS011;4185;41.506;24.938;2023-01-15T10:08:39;4.77;;;3.70;;
8293;SDS011;4185;41.506;24.938;2023-01-15T10:14:28;3.87;;;3.33;;
8293;SDS011;4185;41.506;24.938;2023-01-15T10:17:03;4.33;;;3.33;;
8293;SDS011;4185;41.506;24.938;2023-01-15T10:19:37;5.40;;;4.23;;
8293;SDS011;4185;41.506;24.938;2023-01-15T10:22:05;6.10;;;4.50;;
8293;SDS011;4185;41.506;24.938;2023-01-15T10:24:43;4.60;;;3.73;;
8293;SDS011;4185;41.506;24.938;2023-01-15T10:27:20;5.33;;;3.90;;
8293;SDS011;4185;41.506;24.938;2023-01-15T10:29:51;4.63;;;3.60;;
8293;SDS011;4185;41.506;24.938;2023-01-15T10:32:25;5.37;;;4.20;;
8293;SDS011;4185;41.506;24.938;2023-01-15T10:35:09;6.17;;;4.23;;
8293;SDS011;4185;41.506;24.938;2023-01-15T10:37:47;7.73;;;5.27;;
8293;SDS011;4185;41.506;24.938;2023-01-15T10:40:31;20.13;;;8.77;;
8293;SDS011;4185;41.506;24.938;2023-01-15T10:43:06;6.93;;;5.07;;
8293;SDS011;4185;41.506;24.938;2023-01-15T10:45:41;9.03;;;7.17;;
8293;SDS011;4185;41.506;24.938;2023-01-15T10:48:13;8.53;;;5.97;;
8293;SDS011;4185;41.506;24.938;2023-01-15T10:50:51;7.93;;;5.40;;
8293;SDS011;4185;41.506;24.938;2023-01-15T10:53:22;5.70;;;4.53;;
8293;SDS011;4185;41.506;24.938;2023-01-15T10:55:56;5.47;;;4.10;;
8293;SDS011;4185;41.506;24.938;2023-01-15T10:58:29;6.13;;;4.63;;
8293;SDS011;4185;41.506;24.938;2023-01-15T11:01:04;4.93;;;4.27;;
8293;SDS011;4185;41.506;24.938;2023-01-15T11:03:35;4.13;;;3.60;;
8293;SDS011;4185;41.506;24.938;2023-01-15T11:06:06;16.33;;;11.70;;
8293;SDS011;4185;41.506;24.938;2023-01-15T11:08:37;4.17;;;3.47;;
8293;SDS011;4185;41.506;24.938;2023-01-15T11:11:13;3.97;;;3.57;;
8293;SDS011;4185;41.506;24.938;2023-01-15T11:13:50;4.63;;;3.50;;
8293;SDS011;4185;41.506;24.938;2023-01-15T11:16:36;5.53;;;4.27;;
8293;SDS011;4185;41.506;24.938;2023-01-15T11:19:25;5.40;;;4.23;;
8293;SDS011;4185;41.506;24.938;2023-01-15T11:22:06;6.37;;;4.10;;
8293;SDS011;4185;41.506;24.938;2023-01-15T11:24:36;4.10;;;3.33;;
8293;SDS011;4185;41.506;24.938;2023-01-15T11:27:04;4.47;;;3.47;;
8293;SDS011;4185;41.506;24.938;2023-01-15T11:29:33;5.03;;;3.93;;
8293;SDS011;4185;41.506;24.938;2023-01-15T11:32:02;6.10;;;4.73;;
8293;SDS011;4185;41.506;24.938;2023-01-15T11:34:29;7.83;;;4.03;;
8293;SDS011;4185;41.506;24.938;2023-01-15T11:37:02;6.57;;;4.60;;
8293;SDS011;4185;41.506;24.938;2023-01-15T11:39:32;5.50;;;4.53;;
8293;SDS011;4185;41.506;24.938;2023-01-15T11:41:59;4.60;;;3.80;;
8293;SDS011;4185;41.506;24.938;2023-01-15T11:44:51;15.70;;;8.03;;
8293;SDS011;4185;41.506;24.938;2023-01-15T11:47:36;14.63;;;9.13;;
8293;SDS011;4185;41.506;24.938;2023-01-15T11:50:21;17.37;;;9.83;;
8293;SDS011;4185;41.506;24.938;2023-01-15T11:53:06;6.57;;;5.40;;
8293;SDS011;4185;41.506;24.938;2023-01-15T11:55:40;7.67;;;5.60;;
8293;SDS011;4185;41.506;24.938;2023-01-15T11:58:16;6.50;;;5.73;;
8293;SDS011;4185;41.506;24.938;2023-01-15T12:00:43;5.17;;;4.40;;
8293;SDS011;4185;41.506;24.938;2023-01-15T12:03:16;5.20;;;4.50;;
8293;SDS011;4185;41.506;24.938;2023-01-15T12:05:46;5.93;;;4.73;;
8293;SDS011;4185;41.506;24.938;2023-01-15T12:08:23;4.30;;;3.90;;
8293;SDS011;4185;41.506;24.938;2023-01-15T12:11:13;5.37;;;4.17;;
8293;SDS011;4185;41.506;24.938;2023-01-15T12:14:07;4.67;;;3.60;;
8293;SDS011;4185;41.506;24.938;2023-01-15T12:16:56;3.77;;;3.40;;
8293;SDS011;4185;41.506;24.938;2023-01-15T12:19:28;4.80;;;4.37;;
8293;SDS011;4185;41.506;24.938;2023-01-15T12:22:12;5.87;;;3.57;;
8293;SDS011;4185;41.506;24.938;2023-01-15T12:24:53;5.00;;;4.23;;
8293;SDS011;4185;41.506;24.938;2023-01-15T12:27:49;5.70;;;4.27;;
8293;SDS011;4185;41.506;24.938;2023-01-15T12:30:22;9.27;;;6.83;;
8293;SDS011;4185;41.506;24.938;2023-01-15T12:32:57;11.77;;;6.37;;
8293;SDS011;4185;41.506;24.938;2023-01-15T12:35:29;17.67;;;9.87;;
8293;SDS011;4185;41.506;24.938;2023-01-15T12:37:58;24.73;;;12.83;;
8293;SDS011;4185;41.506;24.938;2023-01-15T12:40:37;13.30;;;8.40;;
8293;SDS011;4185;41.506;24.938;2023-01-15T12:43:12;13.33;;;7.00;;
8293;SDS011;4185;41.506;24.938;2023-01-15T12:46:01;13.80;;;7.97;;
8293;SDS011;4185;41.506;24.938;2023-01-15T12:48:33;9.10;;;5.90;;
8293;SDS011;4185;41.506;24.938;2023-01-15T12:51:08;8.77;;;6.40;;
8293;SDS011;4185;41.506;24.938;2023-01-15T12:53:41;11.30;;;8.13;;
8293;SDS011;4185;41.506;24.938;2023-01-15T12:56:13;10.63;;;5.60;;
8293;SDS011;4185;41.506;24.938;2023-01-15T12:58:48;12.70;;;9.20;;
8293;SDS011;4185;41.506;24.938;2023-01-15T13:01:19;16.93;;;10.53;;
8293;SDS011;4185;41.506;24.938;2023-01-15T13:03:55;11.13;;;8.17;;
8293;SDS011;4185;41.506;24.938;2023-01-15T13:06:30;10.10;;;6.97;;
8293;SDS011;4185;41.506;24.938;2023-01-15T13:09:01;16.03;;;12.10;;
8293;SDS011;4185;41.506;24.938;2023-01-15T13:11:34;15.43;;;11.03;;
8293;SDS011;4185;41.506;24.938;2023-01-15T13:14:02;22.57;;;14.33;;
8293;SDS011;4185;41.506;24.938;2023-01-15T13:16:37;7.40;;;5.33;;
8293;SDS011;4185;41.506;24.938;2023-01-15T13:19:21;13.23;;;9.60;;
8293;SDS011;4185;41.506;24.938;2023-01-15T13:21:58;8.33;;;6.77;;
8293;SDS011;4185;41.506;24.938;2023-01-15T13:24:38;5.63;;;4.87;;
8293;SDS011;4185;41.506;24.938;2023-01-15T13:27:32;5.13;;;4.40;;
8293;SDS011;4185;41.506;24.938;2023-01-15T13:33:07;41.60;;;21.90;;
8293;SDS011;4185;41.506;24.938;2023-01-15T13:35:45;18.30;;;12.40;;
8293;SDS011;4185;41.506;24.938;2023-01-15T13:38:17;7.60;;;6.40;;
8293;SDS011;4185;41.506;24.938;2023-01-15T13:40:47;13.50;;;8.10;;
8293;SDS011;4185;41.506;24.938;2023-01-15T13:43:27;7.97;;;4.23;;
8293;SDS011;4185;41.506;24.938;2023-01-15T13:46:01;6.87;;;4.07;;
8293;SDS011;4185;41.506;24.938;2023-01-15T13:48:31;8.20;;;5.13;;
8293;SDS011;4185;41.506;24.938;2023-01-15T13:51:02;4.83;;;4.27;;
8293;SDS011;4185;41.506;24.938;2023-01-15T13:53:31;5.67;;;4.00;;
8293;SDS011;4185;41.506;24.938;2023-01-15T13:56:02;4.90;;;4.13;;
8293;SDS011;4185;41.506;24.938;2023-01-15T13:58:34;6.83;;;4.20;;
8293;SDS011;4185;41.506;24.938;2023-01-15T14:01:06;4.97;;;3.97;;
8293;SDS011;4185;41.506;24.938;2023-01-15T14:06:37;4.80;;;4.00;;
8293;SDS011;4185;41.506;24.938;2023-01-15T14:09:08;5.03;;;4.20;;
8293;SDS011;4185;41.506;24.938;2023-01-15T14:11:37;4.87;;;4.10;;
8293;SDS011;4185;41.506;24.938;2023-01-15T14:14:13;10.70;;;4.93;;
8293;SDS011;4185;41.506;24.938;2023-01-15T14:16:55;5.03;;;4.33;;
8293;SDS011;4185;41.506;24.938;2023-01-15T14:19:53;4.80;;;3.70;;
8293;SDS011;4185;41.506;24.938;2023-01-15T14:22:32;5.03;;;4.37;;
8293;SDS011;4185;41.506;24.938;2023-01-15T14:25:15;8.43;;;5.10;;
8293;SDS011;4185;41.506;24.938;2023-01-15T14:27:55;8.33;;;5.40;;
8293;SDS011;4185;41.506;24.938;2023-01-15T14:30:51;8.53;;;5.93;;
8293;SDS011;4185;41.506;24.938;2023-01-15T14:33:43;10.37;;;6.90;;
8293;SDS011;4185;41.506;24.938;2023-01-15T14:36:18;10.73;;;6.90;;
8293;SDS011;4185;41.506;24.938;2023-01-15T14:38:49;7.53;;;6.20;;
8293;SDS011;4185;41.506;24.938;2023-01-15T14:41:24;6.73;;;5.37;;
8293;SDS011;4185;41.506;24.938;2023-01-15T14:43:53;7.80;;;5.70;;
8293;SDS011;4185;41.506;24.938;2023-01-15T14:46:23;6.77;;;4.43;;
8293;SDS011;4185;41.506;24.938;2023-01-15T14:48:55;6.40;;;5.03;;
8293;SDS011;4185;41.506;24.938;2023-01-15T14:51:24;13.27;;;9.53;;
8293;SDS011;4185;41.506;24.938;2023-01-15T14:53:54;19.87;;;11.80;;
8293;SDS011;4185;41.506;24.938;2023-01-15T14:56:23;20.57;;;13.70;;
8293;SDS011;4185;41.506;24.938;2023-01-15T14:58:55;33.43;;;21.40;;
8293;SDS011;4185;41.506;24.938;2023-01-15T15:01:28;24.47;;;14.90;;
8293;SDS011;4185;41.506;24.938;2023-01-15T15:04:02;25.03;;;15.00;;
8293;SDS011;4185;41.506;24.938;2023-01-15T15:06:41;23.27;;;13.87;;
8293;SDS011;4185;41.506;24.938;2023-01-15T15:09:12;27.67;;;17.80;;
8293;SDS011;4185;41.506;24.938;2023-01-15T15:11:43;29.17;;;16.90;;
8293;SDS011;4185;41.506;24.938;2023-01-15T15:14:31;24.23;;;14.73;;
8293;SDS011;4185;41.506;24.938;2023-01-15T15:17:04;19.50;;;11.60;;
8293;SDS011;4185;41.506;24.938;2023-01-15T15:19:43;33.50;;;20.63;;
8293;SDS011;4185;41.506;24.938;2023-01-15T15:22:15;37.10;;;20.80;;
8293;SDS011;4185;41.506;24.938;2023-01-15T15:24:46;24.93;;;15.17;;
8293;SDS011;4185;41.506;24.938;2023-01-15T15:27:16;26.40;;;16.43;;
8293;SDS011;4185;41.506;24.938;2023-01-15T15:29:45;16.70;;;11.57;;
8293;SDS011;4185;41.506;24.938;2023-01-15T15:32:13;17.70;;;11.70;;
8293;SDS011;4185;41.506;24.938;2023-01-15T15:34:44;9.83;;;7.57;;